Latest Coastal Weather Observations for Port Lincoln Airport

IDS60701

Issued at 9:31 am CST Thursday 3 September 2015 (issued every 10 minutes, with the page automatically refreshed every 10 minutes)

About coastal observations | Map of coastal stations | Coastal observations for SA | Marine services | Other Formats
Station Details ID: 018192 Name: PORT LINCOLN AWS Lat: -34.60 Lon: 135.88 Height: 8.5 m
Data from the previous 72 hours. | See also: Recent months at Port Lincoln Airport
Date/Time
CST
Temp

°C
Wind Pressure Rain
since 9am
mm
Weather Cloud Vis
km
Sea
Height
m
Swell
Dir
 
Speed
knots
Gust
knots
hPa Trend Height
m
Period
s
Dir
03/09:30am 13.0 S 14 18 1024.1 - 0.0 - Partly cloudy 10 - - - -
03/09:00am 12.2 S 13 17 1023.5 - 9.0 - Cloudy 9 - - - -
03/08:30am 12.0 S 12 15 1022.9 - 9.0 - Partly cloudy 9 - - - -
03/08:03am 11.7 S 15 23 1022.2 - 9.0 - Partly cloudy 9 - - - -
03/08:00am 11.8 S 16 23 1022.1 - 9.0 - Partly cloudy 7 - - - -
03/07:45am 11.8 S 11 21 1021.9 - 9.0 - Partly cloudy 5 - - - -
03/07:30am 12.1 SSW 11 14 1021.6 - 8.8 - Partly cloudy 10 - - - -
03/07:00am 12.3 SSW 11 14 1021.0 - 8.8 - Partly cloudy 10 - - - -
03/06:30am 12.3 SSW 14 19 1020.5 - 8.8 - Partly cloudy 10 - - - -
03/06:00am 11.9 SSW 13 18 1019.8 - 8.8 - Cloudy 10 - - - -
03/05:47am 12.0 S 17 22 1019.5 - 8.8 - Partly cloudy 10 - - - -
03/05:31am 12.3 S 20 26 1019.0 - 8.8 - Partly cloudy 10 - - - -
03/05:30am 12.5 S 20 26 1018.9 - 8.8 - Partly cloudy 10 - - - -
03/05:00am 12.6 SSW 15 22 1018.6 - 8.8 - Partly cloudy 10 - - - -
03/04:30am 12.6 SSW 16 21 1018.2 - 8.8 - Partly cloudy 10 - - - -
03/04:00am 12.5 SSW 15 21 1017.6 - 8.8 - Partly cloudy 10 - - - -
03/03:30am 12.6 SSW 15 21 1017.3 - 8.8 - Partly cloudy 10 - - - -
03/03:00am 12.4 SSW 16 24 1017.0 - 8.8 - Cloudy 9 - - - -
03/02:30am 12.4 SSW 20 26 1016.6 - 8.8 - Partly cloudy 10 - - - -
03/02:11am 12.5 SSW 19 28 1016.5 - 8.8 - Partly cloudy 5 - - - -
03/02:00am 12.6 SSW 17 24 1016.5 - 8.8 - Partly cloudy 10 - - - -
03/01:49am 12.8 SSW 18 23 1016.2 - 8.8 - Partly cloudy 10 - - - -
03/01:31am 12.6 SSW 17 24 1015.8 - 8.8 - Partly cloudy 10 - - - -
03/01:30am 12.5 SSW 17 24 1015.7 - 8.8 - Partly cloudy 10 - - - -
03/01:14am 12.6 SSW 17 24 1015.7 - 8.8 - Partly cloudy 4 - - - -
03/01:07am 12.7 SSW 13 18 1015.7 - 8.4 - Partly cloudy 5 - - - -
03/01:00am 12.9 SSW 12 15 1015.6 - 8.2 - Partly cloudy 10 - - - -
03/12:30am 12.9 SSW 13 16 1015.4 - 8.2 - Partly cloudy 10 - - - -
03/12:00am 12.8 SSW 11 16 1014.9 - 8.2 - Cloudy 10 - - - -
 
Date/Time
CST
Temp

°C
Wind Pressure Rain
since 9am
mm
Weather Cloud Vis
km
Sea
Height
m
Swell
Dir
 
Speed
knots
Gust
knots
hPa Trend Height
m
Period
s
Dir
02/11:30pm 11.8 SSW 8 10 1014.4 - 8.2 - Partly cloudy 10 - - - -
02/11:00pm 11.4 SSW 12 14 1013.9 - 8.2 - Partly cloudy 10 - - - -
02/10:30pm 11.3 SSW 11 14 1013.2 - 8.2 - - 10 - - - -
02/10:00pm 11.7 SW 11 14 1013.3 - 8.2 - Partly cloudy 10 - - - -
02/09:30pm 12.0 SW 12 16 1013.0 - 8.2 - Partly cloudy 10 - - - -
02/09:00pm 12.0 SW 9 13 1012.4 - 8.2 Recent precip. Cloudy 10 - - - -
02/08:30pm 12.4 SSW 11 15 1011.3 - 8.0 - Partly cloudy 10 - - - -
02/08:00pm 12.6 SSW 15 20 1010.5 - 8.0 - Partly cloudy 10 - - - -
02/07:30pm 12.5 SSW 14 21 1009.5 - 8.0 - Partly cloudy 10 - - - -
02/07:00pm 12.4 SW 13 19 1008.7 - 8.0 - Partly cloudy 10 - - - -
02/06:30pm 12.5 SW 13 19 1008.1 - 8.0 - Partly cloudy 10 - - - -
02/06:00pm 12.5 SW 15 23 1007.3 - 8.0 - Cloudy 10 - - - -
02/05:30pm 12.9 SW 16 22 1006.5 - 8.0 - Partly cloudy 10 - - - -
02/05:00pm 13.3 SSW 18 25 1005.5 - 8.0 - Partly cloudy 10 - - - -
02/04:30pm 13.5 SSW 18 24 1004.7 - 8.0 - Partly cloudy 10 - - - -
02/04:00pm 13.9 SSW 21 29 1003.7 - 8.0 - Partly cloudy 10 - - - -
02/03:51pm 14.5 SSW 19 29 1003.6 - 8.0 - Partly cloudy 10 - - - -
02/03:30pm 14.7 SSW 22 27 1003.1 - 8.0 - Partly cloudy 10 - - - -
02/03:14pm 14.0 SSW 20 30 1002.5 - 8.0 - Partly cloudy 10 - - - -
02/03:00pm 14.1 SSW 19 28 1002.1 - 8.0 - Cloudy 10 - - - -
02/02:30pm 13.4 SW 20 26 1001.6 - 8.0 - Partly cloudy 10 - - - -
02/02:00pm 13.2 SW 20 31 1000.6 - 8.0 - Partly cloudy 10 - - - -
02/01:52pm 13.6 SSW 19 29 1000.7 - 8.0 - Partly cloudy 10 - - - -
02/01:30pm 12.5 SSW 24 30 1000.1 - 8.0 - Partly cloudy 6 - - - -
02/01:01pm 12.5 SW 24 34 999.5 - 8.0 - Partly cloudy 8 - - - -
02/01:00pm 12.5 SW 25 34 999.5 - 8.0 - Partly cloudy 8 - - - -
02/12:42pm 13.9 WSW 21 32 999.0 - 8.0 - Partly cloudy 10 - - - -
02/12:30pm 13.1 WSW 20 28 999.0 - 8.0 - Partly cloudy 10 - - - -
02/12:00pm 12.9 W 20 27 999.0 - 8.0 Recent precip. Cloudy 10 - - - -
02/11:47am 11.9 W 17 25 999.1 - 7.8 - Partly cloudy 6 - - - -
02/11:30am 11.9 WSW 15 21 999.3 - 7.6 - Partly cloudy 3 - - - -
02/11:22am 12.8 WSW 18 27 999.3 - 6.6 - Partly cloudy 5 - - - -
02/11:16am 13.8 W 17 27 999.4 - 6.6 - Partly cloudy 10 - - - -
02/11:00am 11.7 W 16 21 999.6 - 6.6 - Partly cloudy 10 - - - -
02/10:32am 11.5 W 15 21 999.7 - 6.4 - Partly cloudy 9 - - - -
02/10:30am 11.4 W 15 20 999.6 - 6.4 - Partly cloudy 9 - - - -
02/10:00am 11.1 NW 14 21 999.9 - 4.8 - Partly cloudy 2 - - - -
02/09:49am 11.0 NNW 13 19 999.6 - 1.6 - Partly cloudy 5 - - - -
02/09:45am 11.1 NNW 14 19 999.6 - 1.4 - Partly cloudy 6 - - - -
02/09:35am 10.8 NNW 13 18 999.5 - 0.8 - Partly cloudy 5 - - - -
02/09:30am 10.7 NNW 14 19 999.7 - 0.6 - Partly cloudy 7 - - - -
02/09:00am 10.4 NNW 15 22 1000.0 - 12.0 Rain Cloudy 7 - - - -
02/08:30am 10.6 NNW 15 21 1000.4 - 11.6 - Partly cloudy 8 - - - -
02/08:08am 10.1 NNW 15 23 1000.5 - 11.4 - Partly cloudy 10 - - - -
02/08:00am 9.7 NNW 15 20 1000.7 - 11.4 - Partly cloudy 7 - - - -
02/07:52am 9.9 NNW 16 22 1000.8 - 11.4 - Partly cloudy 5 - - - -
02/07:30am 9.8 NNW 16 22 1000.9 - 11.0 - Partly cloudy 10 - - - -
02/07:02am 9.5 NNW 15 25 1001.2 - 11.0 - Partly cloudy 10 - - - -
02/07:00am 9.2 NNW 15 21 1001.3 - 11.0 - Partly cloudy 10 - - - -
02/06:30am 9.2 NNW 17 23 1001.2 - 11.0 - Partly cloudy 10 - - - -
02/06:00am 9.6 NNW 15 19 1001.5 - 11.0 Rain Mostly cloudy 10 - - - -
02/05:52am 9.6 NNW 15 21 1001.7 - 10.8 - Partly cloudy 10 - - - -
02/05:36am 9.6 NNW 18 27 1001.9 - 10.6 - Partly cloudy 5 - - - -
02/05:30am 9.8 NNW 16 27 1001.9 - 10.4 - Partly cloudy 10 - - - -
02/05:29am 9.7 NNW 15 27 1001.8 - 10.4 - Partly cloudy 10 - - - -
02/05:11am 9.5 N 11 15 1001.9 - 10.4 - Partly cloudy 10 - - - -
02/05:00am 9.7 N 9 14 1002.0 - 10.4 - Partly cloudy 10 - - - -
02/04:52am 10.0 N 12 16 1002.1 - 10.4 - Partly cloudy 10 - - - -
02/04:30am 9.9 N 9 12 1002.0 - 10.4 - Partly cloudy 10 - - - -
02/04:00am 10.3 N 10 14 1002.2 - 10.4 - Partly cloudy 10 - - - -
02/03:30am 10.6 NNW 12 17 1002.1 - 10.4 - Partly cloudy 10 - - - -
02/03:22am 10.7 NNW 10 16 1002.2 - 10.2 - Partly cloudy 8 - - - -
02/03:09am 10.7 NNW 10 16 1002.2 - 10.2 - Partly cloudy 5 - - - -
02/03:00am 10.6 N 10 16 1002.2 - 10.2 - Partly cloudy 10 - - - -
02/02:30am 10.3 N 10 14 1002.6 - 10.2 - Partly cloudy 10 - - - -
02/02:00am 10.2 N 10 19 1003.1 - 10.2 - Partly cloudy 10 - - - -
02/01:30am 10.0 N 7 9 1003.5 - 10.2 - Partly cloudy 9 - - - -
02/01:00am 10.2 N 9 12 1004.1 - 10.2 - Partly cloudy 10 - - - -
02/12:49am 10.3 N 10 14 1004.2 - 10.2 - Partly cloudy 10 - - - -
02/12:38am 10.8 NNW 12 16 1004.1 - 10.2 - Partly cloudy 5 - - - -
02/12:30am 11.0 NNW 10 15 1004.5 - 10.2 - Partly cloudy 10 - - - -
02/12:00am 11.2 NNW 11 16 1004.2 - 10.2 - Mostly cloudy 10 - - - -
 
Date/Time
CST
Temp

°C
Wind Pressure Rain
since 9am
mm
Weather Cloud Vis
km
Sea
Height
m
Swell
Dir
 
Speed
knots
Gust
knots
hPa Trend Height
m
Period
s
Dir
01/11:44pm 11.1 NNW 7 9 1004.5 - 10.2 - Partly cloudy 10 - - - -
01/11:30pm 10.9 N 5 7 1004.5 - 10.2 - Partly cloudy 10 - - - -
01/11:13pm 10.9 N 5 7 1004.9 - 10.2 - Partly cloudy 10 - - - -
01/11:00pm 10.2 NE 5 5 1004.6 - 10.2 - Partly cloudy 10 - - - -
01/10:30pm 11.1 NNW 3 4 1004.9 - 10.2 - Partly cloudy 10 - - - -
01/10:00pm 11.5 NW 5 7 1005.2 - 10.0 - Partly cloudy 10 - - - -
01/09:35pm 11.8 WNW 11 16 1005.5 - 9.4 - Partly cloudy 10 - - - -
01/09:30pm 12.1 WNW 13 19 1005.2 - 9.4 - Partly cloudy 6 - - - -
01/09:16pm 12.6 NNW 11 17 1005.2 - 9.0 - Partly cloudy 5 - - - -
01/09:00pm 12.6 N 8 13 1004.8 - 8.2 Recent precip. Cloudy 10 - - - -
01/08:30pm 13.1 NNW 8 12 1003.9 - 8.2 - Partly cloudy 10 - - - -
01/08:00pm 13.0 N 11 15 1005.0 - 7.8 - Cloudy 10 - - - -
01/07:30pm 12.4 NNW 5 7 1004.6 - 6.8 - Partly cloudy 10 - - - -
01/07:00pm 11.9 NW 4 5 1003.8 - 6.6 - Cloudy 10 - - - -
01/06:30pm 11.8 NNE 5 9 1003.8 - 6.6 - Partly cloudy 10 - - - -
01/06:00pm 12.1 NNE 10 14 1003.8 - 6.6 - Cloudy 10 - - - -
01/05:30pm 12.6 NE 12 15 1003.5 - 6.6 - Partly cloudy 10 - - - -
01/05:00pm 12.9 NNE 13 18 1003.7 - 6.6 - Partly cloudy 10 - - - -
01/04:30pm 13.2 NE 11 16 1004.0 - 6.6 - Partly cloudy 10 - - - -
01/04:00pm 13.4 NNE 13 17 1004.4 - 6.6 - Partly cloudy 10 - - - -
01/03:30pm 13.5 N 15 24 1004.7 - 6.4 - Partly cloudy 9 - - - -
01/03:00pm 14.0 N 16 22 1005.5 - 5.8 Recent precip. Partly cloudy 10 - - - -
01/02:33pm 11.9 N 15 21 1005.7 - 5.8 - Partly cloudy 10 - - - -
01/02:30pm 11.7 N 15 21 1005.8 - 5.8 - Partly cloudy 10 - - - -
01/02:17pm 11.8 NNW 13 20 1005.7 - 5.0 - Cloudy 5 - - - -
01/02:00pm 12.1 NNW 21 31 1006.4 - 3.4 - Partly cloudy 7 - - - -
01/01:52pm 12.4 NNW 20 31 1006.5 - 2.6 - Partly cloudy 6 - - - -
01/01:42pm 12.8 N 19 28 1006.6 - 2.0 - Partly cloudy 5 - - - -
01/01:30pm 13.5 NNW 16 24 1006.8 - 1.4 - Partly cloudy 10 - - - -
01/01:15pm 13.9 N 15 27 1006.4 - 1.4 - Partly cloudy 10 - - - -
01/01:00pm 13.8 NNW 14 19 1006.8 - 1.4 - Partly cloudy 10 - - - -
01/12:30pm 12.3 NNW 17 23 1007.6 - 1.2 - Partly cloudy 10 - - - -
01/12:11pm 12.3 NNW 18 28 1008.3 - 1.2 - Cloudy 10 - - - -
01/12:00pm 12.3 NNW 19 26 1008.3 - 0.8 Rain Cloudy 10 - - - -
01/11:30am 13.1 NNW 23 33 1007.8 - 0.0 - Cloudy 10 - - - -
01/11:01am 15.2 NNW 24 35 1007.7 - 0.0 - Cloudy 10 - - - -
01/11:00am 15.2 NNW 23 32 1007.8 - 0.0 - Cloudy 10 - - - -
01/10:34am 16.0 NNW 17 27 1007.9 - 0.0 - Cloudy 10 - - - -
01/10:30am 16.1 NNW 17 25 1007.8 - 0.0 - Cloudy 10 - - - -
01/10:00am 16.6 N 17 24 1008.4 - 0.0 - Partly cloudy 10 - - - -
01/09:50am 17.3 N 15 25 1008.5 - 0.0 - Partly cloudy 10 - - - -
01/09:30am 18.0 N 14 20 1008.6 - 0.0 - Partly cloudy 10 - - - -
01/09:00am 15.5 NE 8 11 1009.1 - 0.0 - Cloudy 10 - - - -
01/08:30am 15.3 ENE 7 9 1009.3 - 0.0 - Partly cloudy 10 - - - -
01/08:00am 13.9 NNE 4 7 1009.5 - 0.0 - Partly cloudy 10 - - - -
01/07:30am 14.5 NE 7 10 1009.5 - 0.0 - Partly cloudy 10 - - - -
01/07:00am 14.8 NE 2 8 1009.6 - 0.0 - Cloudy 10 - - - -
01/06:30am 13.0 NNE 5 7 1009.6 - 0.0 - Partly cloudy 10 - - - -
01/06:00am 13.9 N 4 6 1009.8 - 0.0 - Cloudy 10 - - - -
01/05:30am 14.4 N 3 7 1010.0 - 0.0 - Partly cloudy 10 - - - -
01/05:00am 13.0 SE 5 8 1010.4 - 0.0 - Partly cloudy 10 - - - -
01/04:30am 12.2 S 6 8 1010.8 - 0.0 - - 10 - - - -
01/04:00am 13.3 NW 7 10 1010.7 - 0.0 - - 10 - - - -
01/03:30am 14.3 NNW 7 10 1010.6 - 0.0 - - 10 - - - -
01/03:00am 14.2 N 5 8 1010.9 - 0.0 - Cloudy 10 - - - -
01/02:30am 14.7 N 7 10 1011.2 - 0.0 - Cloudy 10 - - - -
01/02:00am 13.9 NNE 4 7 1011.7 - 0.0 - Cloudy 10 - - - -
01/01:30am 13.5 E 5 8 1012.0 - 0.0 - Partly cloudy 10 - - - -
01/01:00am 13.3 WNW 6 9 1012.6 - 0.0 - Partly cloudy 10 - - - -
01/12:30am 12.0 NW 6 9 1013.0 - 0.0 - Partly cloudy 10 - - - -
01/12:00am 11.7 NNW 8 11 1013.2 - 0.0 - Cloudy 10 - - - -
 
Date/Time
CST
Temp

°C
Wind Pressure Rain
since 9am
mm
Weather Cloud Vis
km
Sea
Height
m
Swell
Dir
 
Speed
knots
Gust
knots
hPa Trend Height
m
Period
s
Dir
31/11:30pm 11.9 NW 7 10 1013.4 - 0.0 - Partly cloudy 10 - - - -
31/11:00pm 11.3 NNW 7 9 1013.8 - 0.0 - Partly cloudy 10 - - - -
31/10:30pm 11.6 NNW 7 11 1014.2 - 0.0 - Partly cloudy 10 - - - -
31/10:00pm 11.3 NNW 6 7 1014.5 - 0.0 - Partly cloudy 10 - - - -
31/09:30pm 11.1 NNW 3 6 1014.6 - 0.0 - Cloudy 10 - - - -
31/09:00pm 10.5 WNW 4 5 1014.8 - 0.0 - Cloudy 10 - - - -
31/08:30pm 10.3 WNW 4 5 1015.0 - 0.0 - Partly cloudy 10 - - - -
31/08:00pm 10.0 WNW 4 5 1015.0 - 0.0 - Partly cloudy 10 - - - -
31/07:30pm 10.5 WNW 4 5 1015.0 - 0.0 - Partly cloudy 10 - - - -
31/07:00pm 11.5 CALM 0 0 1014.9 - 0.0 - Partly cloudy 10 - - - -
31/06:30pm 12.5 CALM 0 0 1014.8 - 0.0 - - 10 - - - -
31/06:00pm 13.7 NE 4 6 1014.9 - 0.0 - Partly cloudy 10 - - - -
31/05:30pm 14.7 NE 6 8 1014.9 - 0.0 - Partly cloudy 10 - - - -
31/05:00pm 14.8 ENE 6 7 1014.9 - 0.0 - Partly cloudy 10 - - - -
31/04:30pm 15.3 ENE 9 11 1015.3 - 0.0 - Partly cloudy 10 - - - -
31/04:00pm 14.9 ENE 7 10 1015.5 - 0.0 - Partly cloudy 10 - - - -
31/03:30pm 15.4 E 7 9 1015.6 - 0.0 - Cloudy 10 - - - -
31/03:00pm 15.1 ENE 4 6 1015.7 - 0.0 - Cloudy 10 - - - -
31/02:30pm 15.2 ENE 8 11 1015.9 - 0.0 - Partly cloudy 10 - - - -
31/02:00pm 15.5 ENE 11 13 1015.9 - 0.0 - Partly cloudy 10 - - - -
31/01:30pm 16.0 ENE 11 14 1016.3 - 0.0 - Cloudy 10 - - - -
31/01:00pm 15.3 ENE 12 14 1016.6 - 0.0 - Partly cloudy 10 - - - -
31/12:30pm 15.8 ENE 11 13 1017.2 - 0.0 - - 10 - - - -
31/12:00pm 16.3 E 9 11 1017.9 - 0.0 - - 10 - - - -
31/11:30am 16.0 ENE 10 12 1018.2 - 0.0 - - 10 - - - -
31/11:00am 15.7 ENE 9 12 1018.5 - 0.0 - - 10 - - - -
31/10:30am 14.9 NE 9 11 1018.7 - 0.0 - - 10 - - - -
31/10:00am 13.6 ENE 9 11 1018.9 - 0.0 - - 10 - - - -

Other Formats:

Comma delimited format used in spreadsheet applications
http://www.bom.gov.au/fwo/IDS60701/IDS60701.95661.axf

JavaScript Object Notation format (JSON) in row-major order
http://www.bom.gov.au/fwo/IDS60701/IDS60701.95661.json